TimeEDT,TemperatureF,Dew PointF,Humidity,Sea Level PressureIn,VisibilityMPH,Wind Direction,Wind SpeedMPH,Gust SpeedMPH,PrecipitationIn,Events,Conditions,WindDirDegrees,DateUTC
12:54 AM,30.9,12.9,47,29.82,-9999.0,West,11.5,18.4,N/A,,Unknown,280,2013-04-02 04:54:00
1:54 AM,30.0,10.9,45,29.83,-9999.0,WNW,16.1,27.6,N/A,,Unknown,300,2013-04-02 05:54:00
2:54 AM,30.0,9.0,41,29.83,-9999.0,WNW,15.0,28.8,N/A,,Unknown,290,2013-04-02 06:54:00
3:54 AM,28.9,10.0,45,29.83,-9999.0,West,15.0,21.9,N/A,,Unknown,280,2013-04-02 07:54:00
4:54 AM,28.0,10.0,47,29.85,-9999.0,West,15.0,20.7,N/A,,Unknown,280,2013-04-02 08:54:00
5:54 AM,28.0,10.9,49,29.86,-9999.0,West,11.5,20.7,N/A,,Unknown,280,2013-04-02 09:54:00
6:54 AM,27.0,12.9,56,29.88,-9999.0,WSW,10.4,-,N/A,,Unknown,250,2013-04-02 10:54:00
7:54 AM,28.9,14.0,54,29.90,-9999.0,WSW,9.2,17.3,N/A,,Unknown,250,2013-04-02 11:54:00
8:54 AM,32.0,16.0,52,29.91,-9999.0,West,12.7,24.2,N/A,,Unknown,260,2013-04-02 12:54:00
9:54 AM,34.0,15.1,46,29.90,-9999.0,West,10.4,24.2,N/A,,Unknown,260,2013-04-02 13:54:00
10:54 AM,34.0,15.1,46,29.89,-9999.0,WNW,15.0,27.6,N/A,,Unknown,290,2013-04-02 14:54:00
11:54 AM,36.0,14.0,41,29.88,-9999.0,West,17.3,28.8,N/A,,Unknown,280,2013-04-02 15:54:00
12:54 PM,36.0,14.0,41,29.87,-9999.0,West,23.0,35.7,N/A,,Unknown,270,2013-04-02 16:54:00
1:54 PM,39.0,10.9,32,29.85,-9999.0,West,17.3,29.9,N/A,,Unknown,260,2013-04-02 17:54:00
2:54 PM,39.9,8.1,27,29.83,-9999.0,West,25.3,39.1,N/A,,Unknown,270,2013-04-02 18:54:00
3:54 PM,39.0,9.0,29,29.83,-9999.0,WNW,25.3,36.8,N/A,,Unknown,290,2013-04-02 19:54:00
4:54 PM,37.9,9.0,30,29.85,-9999.0,West,26.5,38.0,N/A,,Unknown,280,2013-04-02 20:54:00
5:54 PM,36.0,8.1,31,29.88,-9999.0,West,20.7,36.8,N/A,,Unknown,280,2013-04-02 21:54:00
6:54 PM,34.0,8.1,34,29.90,-9999.0,West,26.5,41.4,N/A,,Unknown,270,2013-04-02 22:54:00
7:54 PM,32.0,9.0,38,29.92,-9999.0,West,27.6,42.6,N/A,,Unknown,270,2013-04-02 23:54:00
8:54 PM,32.0,10.0,40,29.96,-9999.0,West,18.4,26.5,N/A,,Unknown,270,2013-04-03 00:54:00
9:54 PM,30.9,10.0,42,29.96,-9999.0,West,16.1,32.2,N/A,,Unknown,280,2013-04-03 01:54:00
10:54 PM,30.9,10.9,43,29.95,-9999.0,West,18.4,29.9,N/A,,Unknown,270,2013-04-03 02:54:00
11:54 PM,30.0,12.9,49,29.96,-9999.0,West,12.7,24.2,N/A,,Unknown,270,2013-04-03 03:54:00